createdAt,value
2023-04-21T00:01:14.927Z,15.60
2023-04-21T00:03:43.240Z,18.20
2023-04-21T00:06:11.002Z,16.40
2023-04-21T00:08:40.796Z,15.60
2023-04-21T00:11:08.489Z,14.00
2023-04-21T00:13:36.289Z,18.00
2023-04-21T00:16:03.939Z,23.20
2023-04-21T00:18:31.852Z,10.40
2023-04-21T00:20:59.631Z,8.00
2023-04-21T00:23:27.193Z,17.20
2023-04-21T00:25:54.859Z,15.80
2023-04-21T00:28:22.504Z,17.60
2023-04-21T00:30:50.485Z,18.00
2023-04-21T00:33:18.309Z,15.00
2023-04-21T00:35:45.902Z,16.80
2023-04-21T00:38:13.581Z,9.00
2023-04-21T00:40:41.173Z,18.80
2023-04-21T00:43:08.893Z,16.00
2023-04-21T00:45:36.657Z,14.20
2023-04-21T00:48:04.450Z,22.60
2023-04-21T00:50:32.569Z,18.80
2023-04-21T00:53:00.168Z,19.60
2023-04-21T00:55:28.162Z,17.40
2023-04-21T00:57:55.827Z,17.80
2023-04-21T01:00:23.482Z,16.80
2023-04-21T01:02:51.268Z,12.00
2023-04-21T01:05:19.359Z,14.60
2023-04-21T01:07:47.397Z,18.00
2023-04-21T01:10:15.258Z,16.40
2023-04-21T01:12:43.218Z,21.40
2023-04-21T01:15:11.235Z,21.20
2023-04-21T01:17:40.476Z,15.80
2023-04-21T01:20:09.101Z,15.60
2023-04-21T01:22:36.912Z,14.40
2023-04-21T01:25:04.850Z,19.00
2023-04-21T01:27:32.413Z,12.80
2023-04-21T01:30:00.030Z,21.00
2023-04-21T01:32:28.085Z,17.20
2023-04-21T01:34:56.877Z,16.00
2023-04-21T01:37:24.484Z,10.60
2023-04-21T01:39:54.300Z,17.00
2023-04-21T01:42:21.921Z,16.60
2023-04-21T01:44:50.117Z,8.60
2023-04-21T01:47:17.737Z,15.80
2023-04-21T01:49:45.317Z,15.60
2023-04-21T01:52:12.922Z,16.60
2023-04-21T01:54:40.572Z,24.00
2023-04-21T01:57:08.976Z,22.00
2023-04-21T01:59:36.612Z,15.40
2023-04-21T02:02:04.460Z,25.40
2023-04-21T02:04:32.310Z,18.00
2023-04-21T02:07:00.127Z,13.20
2023-04-21T02:09:27.794Z,16.00
2023-04-21T02:11:55.545Z,18.80
2023-04-21T02:14:23.140Z,18.20
2023-04-21T02:16:50.817Z,18.80
2023-04-21T02:19:18.931Z,15.80
2023-04-21T02:21:47.101Z,20.20
2023-04-21T02:24:14.882Z,22.40
2023-04-21T02:26:42.465Z,13.40
2023-04-21T02:29:10.032Z,22.60
2023-04-21T02:31:49.732Z,18.20
2023-04-21T02:34:22.412Z,20.40
2023-04-21T02:36:50.051Z,21.80
2023-04-21T02:39:17.819Z,13.40
2023-04-21T02:41:45.664Z,19.40
2023-04-21T02:44:13.319Z,18.80
2023-04-21T02:46:41.520Z,24.80
2023-04-21T02:49:09.160Z,23.00
2023-04-21T02:51:36.775Z,16.60
2023-04-21T02:54:04.363Z,25.20
2023-04-21T02:56:32.101Z,24.00
2023-04-21T02:58:59.792Z,21.00
2023-04-21T03:01:27.454Z,21.20
2023-04-21T03:03:55.193Z,18.20
2023-04-21T03:06:22.964Z,18.80
2023-04-21T03:08:50.619Z,13.60
2023-04-21T03:11:18.534Z,21.60
2023-04-21T03:13:46.295Z,17.60
2023-04-21T03:16:14.330Z,23.40
2023-04-21T03:18:41.970Z,27.40
2023-04-21T03:21:10.079Z,18.20
2023-04-21T03:23:38.044Z,25.20
2023-04-21T03:26:05.619Z,22.00
2023-04-21T03:28:33.232Z,24.00
2023-04-21T03:31:00.809Z,19.80
2023-04-21T03:33:28.425Z,17.60
2023-04-21T03:35:56.402Z,12.00
2023-04-21T03:38:23.985Z,19.00
2023-04-21T03:40:51.600Z,22.00
2023-04-21T03:43:19.711Z,18.00
2023-04-21T03:45:47.363Z,16.80
2023-04-21T03:48:15.321Z,25.60
2023-04-21T03:50:42.965Z,19.40
2023-04-21T03:53:10.543Z,21.40
2023-04-21T03:55:38.100Z,19.20
2023-04-21T03:58:05.775Z,21.40
2023-04-21T04:00:33.695Z,20.20
2023-04-21T04:03:01.397Z,21.00
2023-04-21T04:05:29.597Z,23.20
2023-04-21T04:07:57.200Z,20.00
2023-04-21T04:10:24.794Z,24.60
2023-04-21T04:12:52.411Z,21.40
2023-04-21T04:15:20.194Z,21.40
2023-04-21T04:17:47.841Z,25.40
2023-04-21T04:20:15.498Z,19.40
2023-04-21T04:22:43.100Z,7.80
2023-04-21T04:25:13.265Z,19.00
2023-04-21T04:27:41.423Z,30.60
2023-04-21T04:30:09.579Z,22.00
2023-04-21T04:32:38.288Z,24.00
2023-04-21T04:35:05.952Z,21.80
2023-04-21T04:37:34.902Z,20.60
2023-04-21T04:40:02.570Z,18.00
2023-04-21T04:42:30.519Z,21.20
2023-04-21T04:45:01.877Z,18.40
2023-04-21T04:47:29.865Z,17.80
2023-04-21T04:49:59.506Z,17.20
2023-04-21T04:52:27.139Z,17.20
2023-04-21T04:54:54.771Z,23.60
2023-04-21T04:57:22.473Z,23.40
2023-04-21T04:59:50.112Z,27.80
2023-04-21T05:02:18.180Z,25.20
2023-04-21T05:04:45.965Z,20.20
2023-04-21T05:07:13.747Z,24.80
2023-04-21T05:09:41.311Z,13.20
2023-04-21T05:12:09.367Z,18.00
2023-04-21T05:14:37.632Z,25.80
2023-04-21T05:17:05.323Z,21.60
2023-04-21T05:19:33.054Z,23.60
2023-04-21T05:22:02.090Z,21.20
2023-04-21T05:24:29.797Z,20.20
2023-04-21T05:26:58.168Z,11.80
2023-04-21T05:29:25.807Z,25.80
2023-04-21T05:31:53.525Z,24.80
2023-04-21T05:34:21.544Z,13.50
2023-04-21T05:36:49.349Z,19.00
2023-04-21T05:39:18.301Z,24.80
2023-04-21T05:41:46.053Z,17.20
2023-04-21T05:44:13.928Z,21.00
2023-04-21T05:46:41.625Z,28.80
2023-04-21T05:49:09.601Z,22.40
2023-04-21T05:51:38.119Z,31.00
2023-04-21T05:54:05.797Z,22.00
2023-04-21T05:56:33.921Z,26.40
2023-04-21T05:59:01.533Z,20.40
2023-04-21T06:01:29.195Z,26.20
2023-04-21T06:03:57.707Z,23.60
2023-04-21T06:06:25.598Z,24.20
2023-04-21T06:08:53.221Z,29.20
2023-04-21T06:11:20.926Z,22.20
2023-04-21T06:13:48.773Z,23.60
2023-04-21T06:16:16.477Z,27.00
2023-04-21T06:18:44.638Z,23.40
2023-04-21T06:21:12.279Z,31.60
2023-04-21T06:23:39.932Z,24.60
2023-04-21T06:26:07.763Z,22.00
2023-04-21T06:28:35.938Z,26.20
2023-04-21T06:31:05.317Z,26.00
2023-04-21T06:33:34.704Z,27.50
2023-04-21T06:36:02.372Z,25.50
2023-04-21T06:38:30.119Z,23.00
2023-04-21T06:41:00.136Z,20.00
2023-04-21T06:43:27.844Z,25.00
2023-04-21T06:45:55.545Z,23.25
2023-04-21T06:48:24.671Z,24.75
2023-04-21T06:50:52.392Z,18.25
2023-04-21T06:53:22.155Z,15.25
2023-04-21T06:55:49.984Z,32.25
2023-04-21T06:58:19.814Z,17.50
2023-04-21T07:00:48.870Z,25.25
2023-04-21T07:03:16.826Z,23.25
2023-04-21T07:05:45.215Z,17.25
2023-04-21T07:08:13.065Z,30.50
2023-04-21T07:10:41.309Z,21.00
2023-04-21T07:13:10.136Z,19.50
2023-04-21T07:15:38.099Z,22.50
2023-04-21T07:18:06.735Z,27.75
2023-04-21T07:20:34.660Z,21.50
2023-04-21T07:23:02.646Z,23.75
2023-04-21T07:25:30.914Z,25.50
2023-04-21T07:27:58.724Z,20.25
2023-04-21T07:30:26.820Z,24.75
2023-04-21T07:32:54.825Z,32.75
2023-04-21T07:35:22.595Z,31.00
2023-04-21T07:37:50.447Z,33.50
2023-04-21T07:40:18.494Z,31.75
2023-04-21T07:42:46.915Z,29.50
2023-04-21T07:45:14.808Z,31.50
2023-04-21T07:47:43.285Z,27.50
2023-04-21T07:50:11.312Z,32.25
2023-04-21T07:52:39.092Z,30.25
2023-04-21T07:55:07.627Z,21.00
2023-04-21T07:57:38.652Z,26.25
2023-04-21T08:00:06.494Z,27.00
2023-04-21T08:02:34.614Z,30.00
2023-04-21T08:05:02.570Z,13.50
2023-04-21T08:07:31.211Z,25.25
2023-04-21T08:10:00.468Z,30.75
2023-04-21T08:12:28.358Z,32.00
2023-04-21T08:14:56.262Z,34.00
2023-04-21T08:17:24.318Z,29.50
2023-04-21T08:19:52.866Z,27.75
2023-04-21T08:22:20.781Z,31.50
2023-04-21T08:24:48.730Z,29.50
2023-04-21T08:27:16.635Z,23.00
2023-04-21T08:29:44.404Z,35.00
2023-04-21T08:32:13.383Z,25.50
2023-04-21T08:34:41.298Z,29.50
2023-04-21T08:37:09.101Z,33.50
2023-04-21T08:39:36.946Z,22.00
2023-04-21T08:42:04.785Z,33.50
2023-04-21T08:44:33.023Z,30.25
2023-04-21T08:47:00.980Z,26.00
2023-04-21T08:49:28.880Z,34.25
2023-04-21T08:51:56.664Z,22.50
2023-04-21T08:54:24.830Z,21.50
2023-04-21T08:56:56.972Z,19.75
2023-04-21T08:59:32.711Z,22.00
2023-04-21T09:02:00.736Z,30.50
2023-04-21T09:04:28.854Z,28.25
2023-04-21T09:06:57.542Z,32.00
2023-04-21T09:09:25.482Z,23.25
2023-04-21T09:11:53.460Z,25.00
2023-04-21T09:14:21.412Z,25.00
2023-04-21T09:16:49.345Z,30.75
2023-04-21T09:19:18.632Z,29.50
2023-04-21T09:21:46.827Z,31.00
2023-04-21T09:24:14.733Z,27.50
2023-04-21T09:26:42.591Z,33.00
2023-04-21T09:29:10.648Z,14.00
2023-04-21T09:31:39.265Z,20.50
2023-04-21T09:34:07.453Z,30.75
2023-04-21T09:36:35.864Z,24.50
2023-04-21T09:41:34.640Z,29.50
2023-04-21T09:44:16.635Z,32.50
2023-04-21T09:46:45.218Z,25.50
2023-04-21T09:49:13.355Z,29.25
2023-04-21T09:54:25.975Z,24.25
2023-04-21T09:56:57.925Z,26.00
2023-04-21T09:59:25.709Z,27.50
2023-04-21T10:01:53.470Z,35.75
2023-04-21T10:04:23.090Z,29.25
2023-04-21T10:06:51.297Z,31.50
2023-04-21T10:09:19.197Z,23.50
2023-04-21T10:11:47.004Z,33.00
2023-04-21T10:14:15.255Z,27.75
2023-04-21T10:16:43.797Z,30.50
2023-04-21T10:19:12.845Z,30.50
2023-04-21T10:21:40.871Z,33.75
2023-04-21T10:24:08.834Z,32.00
2023-04-21T10:26:36.840Z,34.75
2023-04-21T10:29:05.133Z,31.67
2023-04-21T10:31:33.009Z,31.50
2023-04-21T10:34:01.191Z,33.00
2023-04-21T10:36:29.024Z,35.00
2023-04-21T10:38:56.829Z,30.50
2023-04-21T10:41:26.394Z,29.00
2023-04-21T10:43:54.213Z,29.50
2023-04-21T10:46:22.159Z,25.50
2023-04-21T10:48:50.183Z,27.75
2023-04-21T10:51:18.085Z,30.25
2023-04-21T10:53:47.923Z,30.50
2023-04-21T10:56:16.037Z,28.00
2023-04-21T10:58:43.801Z,24.25
2023-04-21T11:01:11.767Z,28.50
2023-04-21T11:03:39.893Z,23.00
2023-04-21T11:06:08.193Z,34.00
2023-04-21T11:08:38.181Z,25.00
2023-04-21T11:11:06.619Z,27.25
2023-04-21T11:13:35.244Z,32.75
2023-04-21T11:16:03.292Z,32.25
2023-04-21T11:18:31.868Z,22.25
2023-04-21T11:20:59.770Z,25.00
2023-04-21T11:23:27.642Z,32.25
2023-04-21T11:25:56.169Z,27.75
2023-04-21T11:28:24.151Z,22.50
2023-04-21T11:30:52.622Z,32.00
2023-04-21T11:33:20.674Z,28.50
2023-04-21T11:35:48.766Z,30.25
2023-04-21T11:38:18.865Z,33.75
2023-04-21T11:40:46.926Z,36.00
2023-04-21T11:43:15.208Z,28.25
2023-04-21T11:45:43.011Z,26.00
2023-04-21T11:48:11.748Z,29.75
2023-04-21T11:50:39.564Z,25.50
2023-04-21T11:53:07.457Z,31.50
2023-04-21T11:55:37.836Z,30.25
2023-04-21T11:58:06.211Z,23.75
2023-04-21T12:00:34.104Z,25.75
2023-04-21T12:03:02.173Z,27.50
2023-04-21T12:05:30.069Z,27.00
2023-04-21T12:07:58.311Z,28.25
2023-04-21T12:10:26.619Z,30.00
2023-04-21T12:12:54.473Z,32.50
2023-04-21T12:15:23.504Z,27.75
2023-04-21T12:17:51.506Z,27.00
2023-04-21T12:20:19.954Z,31.50
2023-04-21T12:22:47.854Z,21.75
2023-04-21T12:25:15.858Z,26.50
2023-04-21T12:27:43.687Z,25.75
2023-04-21T12:30:11.582Z,30.00
2023-04-21T12:32:39.958Z,31.50
2023-04-21T12:35:07.778Z,32.00
2023-04-21T12:37:35.543Z,32.75
2023-04-21T12:40:03.603Z,29.20
2023-04-21T12:42:31.452Z,17.25
2023-04-21T12:44:59.359Z,24.50
2023-04-21T12:47:27.293Z,28.00
2023-04-21T12:49:55.246Z,25.60
2023-04-21T12:52:23.160Z,27.40
2023-04-21T12:54:51.529Z,32.00
2023-04-21T12:57:20.027Z,27.20
2023-04-21T12:59:48.213Z,23.50
2023-04-21T13:02:16.609Z,23.60
2023-04-21T13:04:44.662Z,28.80
2023-04-21T13:07:12.640Z,29.80
2023-04-21T13:09:41.148Z,34.80
2023-04-21T13:12:08.975Z,24.80
2023-04-21T13:14:36.872Z,34.20
2023-04-21T13:17:05.727Z,31.20
2023-04-21T13:19:33.740Z,26.80
2023-04-21T13:22:02.510Z,28.00
2023-04-21T13:24:30.565Z,27.00
2023-04-21T13:26:58.755Z,14.20
2023-04-21T13:29:30.445Z,23.60
2023-04-21T13:31:58.634Z,25.20
2023-04-21T13:34:27.135Z,21.60
2023-04-21T13:36:55.085Z,26.60
2023-04-21T13:39:23.533Z,25.00
2023-04-21T13:41:53.505Z,20.80
2023-04-21T13:44:22.727Z,21.80
2023-04-21T13:46:52.544Z,21.20
2023-04-21T13:49:20.529Z,20.60
2023-04-21T13:51:48.405Z,22.40
2023-04-21T13:54:16.466Z,19.60
2023-04-21T13:56:44.390Z,24.60
2023-04-21T13:59:15.343Z,15.60
2023-04-21T14:01:43.402Z,19.20
2023-04-21T14:04:11.450Z,22.00
2023-04-21T14:06:39.496Z,23.20
2023-04-21T14:09:09.314Z,18.60
2023-04-21T14:11:37.748Z,20.00
2023-04-21T14:16:36.503Z,21.80
2023-04-21T14:19:04.519Z,20.20
2023-04-21T14:21:32.950Z,22.20
2023-04-21T14:24:01.486Z,20.60
2023-04-21T14:26:29.403Z,19.80
2023-04-21T14:28:57.209Z,22.40
2023-04-21T14:31:25.208Z,23.00
2023-04-21T14:33:53.126Z,19.80
2023-04-21T14:36:21.602Z,26.00
2023-04-21T14:38:49.556Z,25.20
2023-04-21T14:41:17.456Z,20.60
2023-04-21T14:43:47.592Z,19.80
2023-04-21T14:46:16.989Z,21.60
2023-04-21T14:48:45.381Z,21.60
2023-04-21T14:51:13.259Z,21.20
2023-04-21T14:53:41.657Z,20.80
2023-04-21T14:56:09.480Z,18.40
2023-04-21T14:58:37.444Z,21.20
2023-04-21T15:01:06.048Z,21.20
2023-04-21T15:03:34.067Z,9.20
2023-04-21T15:06:02.406Z,21.80
2023-04-21T15:08:30.438Z,24.00
2023-04-21T15:10:58.144Z,18.00
2023-04-21T15:13:26.573Z,16.00
2023-04-21T15:15:54.408Z,12.80
2023-04-21T15:18:22.267Z,14.40
2023-04-21T15:20:50.050Z,21.80
2023-04-21T15:23:17.905Z,22.00
2023-04-21T15:25:46.798Z,19.50
2023-04-21T15:28:15.040Z,21.25
2023-04-21T15:30:42.950Z,18.75
2023-04-21T15:33:11.762Z,23.50
2023-04-21T15:35:39.597Z,20.25
2023-04-21T15:38:08.268Z,22.50
2023-04-21T15:40:39.274Z,21.50
2023-04-21T15:43:11.554Z,20.00
2023-04-21T15:45:39.562Z,21.75
2023-04-21T15:48:07.501Z,24.25
2023-04-21T15:50:35.791Z,23.00
2023-04-21T15:53:03.584Z,24.25
2023-04-21T15:55:31.343Z,21.25
2023-04-21T15:57:59.278Z,24.00
2023-04-21T16:00:27.187Z,26.00
2023-04-21T16:02:56.295Z,21.00
2023-04-21T16:05:27.428Z,22.25
2023-04-21T16:07:56.832Z,27.50
2023-04-21T16:10:25.094Z,23.00
2023-04-21T16:12:52.916Z,18.25
2023-04-21T16:15:24.773Z,20.20
2023-04-21T16:17:53.015Z,16.80
2023-04-21T16:20:20.961Z,16.80
2023-04-21T16:22:48.753Z,18.60
2023-04-21T16:25:19.274Z,21.60
2023-04-21T16:27:48.191Z,21.20
2023-04-21T16:30:16.542Z,20.00
2023-04-21T16:32:44.582Z,19.40
2023-04-21T16:35:12.510Z,20.20
2023-04-21T16:37:42.895Z,19.60
2023-04-21T16:40:11.576Z,18.40
2023-04-21T16:42:39.494Z,24.60
2023-04-21T16:45:07.439Z,17.40
2023-04-21T16:47:41.336Z,16.00
2023-04-21T16:50:10.287Z,15.20
2023-04-21T16:52:39.493Z,21.25
2023-04-21T16:55:07.526Z,19.00
2023-04-21T16:57:35.555Z,18.60
2023-04-21T17:00:05.799Z,16.80
2023-04-21T17:02:33.744Z,16.00
2023-04-21T17:05:01.838Z,18.80
2023-04-21T17:07:31.622Z,19.00
2023-04-21T17:09:59.472Z,12.80
2023-04-21T17:12:27.310Z,13.00
2023-04-21T17:14:55.534Z,9.00
2023-04-21T17:17:24.327Z,14.60
2023-04-21T17:19:52.542Z,15.60
2023-04-21T17:22:20.380Z,14.20
2023-04-21T17:24:53.592Z,18.50
2023-04-21T17:27:22.046Z,15.40
2023-04-21T17:29:51.005Z,21.00
2023-04-21T17:32:18.980Z,15.25
2023-04-21T17:34:46.926Z,18.75
2023-04-21T17:37:15.780Z,22.50
2023-04-21T17:39:43.742Z,14.00
2023-04-21T17:42:12.537Z,13.00
2023-04-21T17:44:42.147Z,17.50
2023-04-21T17:47:10.002Z,18.50
2023-04-21T17:49:38.056Z,18.00
2023-04-21T17:52:06.054Z,13.00
2023-04-21T17:54:34.406Z,15.50
2023-04-21T17:57:03.061Z,11.50
2023-04-21T17:59:31.000Z,16.00
2023-04-21T18:01:59.410Z,18.00
2023-04-21T18:04:29.968Z,18.00
2023-04-21T18:06:59.226Z,14.75
2023-04-21T18:09:27.192Z,14.50
2023-04-21T18:11:55.417Z,18.25
2023-04-21T18:14:23.906Z,9.50
2023-04-21T18:16:51.784Z,8.00
2023-04-21T18:19:20.305Z,12.25
2023-04-21T18:21:48.126Z,19.25
2023-04-21T18:24:15.930Z,12.75
2023-04-21T18:26:43.930Z,18.00
2023-04-21T18:29:11.799Z,16.00
2023-04-21T18:31:40.181Z,15.50
2023-04-21T18:34:09.095Z,18.50
2023-04-21T18:36:38.626Z,17.00
2023-04-21T18:39:06.700Z,18.25
2023-04-21T18:41:34.934Z,24.50
2023-04-21T18:44:03.725Z,23.25
2023-04-21T18:46:31.543Z,44.50
2023-04-21T18:48:59.577Z,38.25
2023-04-21T18:51:27.592Z,27.00
2023-04-21T18:53:55.602Z,19.50
2023-04-21T18:56:23.867Z,16.50
2023-04-21T18:58:51.757Z,18.00
2023-04-21T19:01:19.630Z,18.00
2023-04-21T19:03:47.948Z,17.25
2023-04-21T19:06:15.946Z,18.50
2023-04-21T19:08:44.493Z,20.00
2023-04-21T19:11:12.434Z,15.50
2023-04-21T19:13:40.312Z,20.50
2023-04-21T19:16:08.966Z,16.25
2023-04-21T19:18:36.926Z,19.25
2023-04-21T19:21:06.521Z,16.50
2023-04-21T19:23:34.279Z,17.50
2023-04-21T19:26:05.393Z,7.00
2023-04-21T19:28:33.134Z,18.75
2023-04-21T19:31:01.028Z,16.75
2023-04-21T19:33:29.347Z,15.00
2023-04-21T19:35:57.222Z,19.25
2023-04-21T19:38:25.205Z,13.50
2023-04-21T19:40:53.129Z,22.75
2023-04-21T19:43:21.851Z,16.00
2023-04-21T19:45:50.438Z,17.50
2023-04-21T19:48:18.926Z,18.50
2023-04-21T19:50:47.218Z,20.25
2023-04-21T19:53:15.179Z,23.50
2023-04-21T19:55:43.195Z,21.50
2023-04-21T19:58:11.776Z,22.00
2023-04-21T20:00:39.685Z,15.50
2023-04-21T20:03:07.859Z,18.50
2023-04-21T20:05:35.928Z,21.25
2023-04-21T20:08:03.709Z,17.00
2023-04-21T20:10:38.478Z,21.00
2023-04-21T20:13:06.295Z,18.50
2023-04-21T20:15:34.353Z,22.25
2023-04-21T20:18:02.388Z,17.00
2023-04-21T20:20:31.191Z,14.50
2023-04-21T20:22:59.727Z,10.00
2023-04-21T20:25:27.605Z,8.00
2023-04-21T20:27:55.418Z,6.50
2023-04-21T20:30:23.278Z,6.75
2023-04-21T20:32:51.429Z,10.00
2023-04-21T20:35:20.118Z,6.00
2023-04-21T20:37:48.182Z,6.00
2023-04-21T20:40:16.128Z,2.00
2023-04-21T20:42:45.100Z,0.50
2023-04-21T20:45:13.143Z,6.00
2023-04-21T20:47:41.900Z,6.50
2023-04-21T20:50:10.233Z,6.75
2023-04-21T20:52:38.101Z,5.50
2023-04-21T20:55:06.575Z,7.00
2023-04-21T20:57:34.496Z,4.00
2023-04-21T21:00:02.902Z,4.00
2023-04-21T21:02:30.868Z,4.50
2023-04-21T21:04:58.805Z,6.25
2023-04-21T21:07:26.767Z,7.00
2023-04-21T21:09:54.680Z,3.50
2023-04-21T21:12:23.294Z,4.00
2023-04-21T21:14:51.029Z,3.75
2023-04-21T21:17:19.658Z,1.00
2023-04-21T21:19:47.575Z,4.00
2023-04-21T21:22:15.434Z,4.00
2023-04-21T21:24:43.699Z,6.25
2023-04-21T21:27:11.665Z,3.00
2023-04-21T21:29:39.832Z,2.50
2023-04-21T21:32:08.141Z,6.00
2023-04-21T21:34:36.016Z,3.75
2023-04-21T21:37:05.151Z,5.50
2023-04-21T21:39:33.824Z,6.25
2023-04-21T21:42:01.670Z,7.00
2023-04-21T21:44:29.389Z,4.00
2023-04-21T21:46:57.318Z,7.00
2023-04-21T21:49:25.800Z,5.00
2023-04-21T21:51:54.785Z,0.50
2023-04-21T21:54:22.562Z,6.00
2023-04-21T21:56:50.249Z,5.50
2023-04-21T21:59:18.163Z,6.00
2023-04-21T22:01:46.701Z,4.00
2023-04-21T22:04:14.571Z,5.00
2023-04-21T22:06:42.568Z,3.25
2023-04-21T22:09:10.438Z,3.00
2023-04-21T22:11:38.300Z,1.50
2023-04-21T22:14:19.034Z,3.00
2023-04-21T22:16:50.793Z,3.00
2023-04-21T22:19:19.323Z,5.50
2023-04-21T22:21:47.459Z,3.50
2023-04-21T22:24:15.823Z,3.25
2023-04-21T22:26:43.602Z,4.50
2023-04-21T22:29:11.308Z,3.75
2023-04-21T22:31:39.093Z,3.25
2023-04-21T22:34:06.827Z,4.50
2023-04-21T22:36:34.955Z,1.00
2023-04-21T22:39:02.767Z,3.75
2023-04-21T22:41:30.425Z,3.50
2023-04-21T22:43:58.426Z,4.00
2023-04-21T22:46:26.200Z,6.00
2023-04-21T22:48:54.972Z,1.00
2023-04-21T22:51:23.273Z,5.50
2023-04-21T22:53:51.065Z,5.00
2023-04-21T22:56:18.694Z,2.00
2023-04-21T22:58:46.346Z,4.00
2023-04-21T23:01:14.117Z,6.50
2023-04-21T23:03:41.938Z,3.50
2023-04-21T23:06:11.475Z,3.50
2023-04-21T23:08:39.085Z,6.50
2023-04-21T23:11:06.775Z,3.50
2023-04-21T23:13:34.991Z,5.50
2023-04-21T23:16:02.692Z,6.00
2023-04-21T23:18:30.596Z,6.00
2023-04-21T23:20:58.428Z,1.00
2023-04-21T23:23:26.166Z,0.00
2023-04-21T23:25:54.425Z,3.00
2023-04-21T23:28:22.974Z,3.75
2023-04-21T23:30:50.720Z,3.50
2023-04-21T23:33:18.488Z,3.75
2023-04-21T23:35:46.179Z,4.00
2023-04-21T23:38:14.231Z,5.50
2023-04-21T23:40:41.859Z,4.25
2023-04-21T23:43:09.481Z,3.25
2023-04-21T23:45:37.322Z,2.50
2023-04-21T23:48:05.195Z,3.00
2023-04-21T23:50:33.999Z,3.00
2023-04-21T23:53:01.838Z,0.00
2023-04-21T23:55:29.495Z,4.50
2023-04-21T23:57:57.083Z,6.00
